createdAt,value
2018-04-13T00:00:49.532Z,78.30
2018-04-13T00:01:49.547Z,78.39
2018-04-13T00:02:49.580Z,78.58
2018-04-13T00:03:49.598Z,78.77
2018-04-13T00:04:49.621Z,78.67
2018-04-13T00:05:49.640Z,79.25
2018-04-13T00:06:49.665Z,79.06
2018-04-13T00:07:49.684Z,78.77
2018-04-13T00:08:49.715Z,78.77
2018-04-13T00:09:49.735Z,78.77
2018-04-13T00:10:49.754Z,78.77
2018-04-13T00:11:49.778Z,79.06
2018-04-13T00:12:49.803Z,79.25
2018-04-13T00:13:49.829Z,79.44
2018-04-13T00:14:49.844Z,79.35
2018-04-13T00:15:49.874Z,79.82
2018-04-13T00:16:49.893Z,80.01
2018-04-13T00:17:49.915Z,79.82
2018-04-13T00:18:49.939Z,80.20
2018-04-13T00:19:49.962Z,79.91
2018-04-13T00:20:49.985Z,79.91
2018-04-13T00:21:50.009Z,79.82
2018-04-13T00:22:50.029Z,80.11
2018-04-13T00:23:50.052Z,79.82
2018-04-13T00:24:50.075Z,79.15
2018-04-13T00:25:50.100Z,79.25
2018-04-13T00:26:50.121Z,79.38
2018-04-13T00:27:50.155Z,79.06
2018-04-13T00:28:50.165Z,79.06
2018-04-13T00:29:50.204Z,80.01
2018-04-13T00:30:50.214Z,79.91
2018-04-13T00:31:50.235Z,80.30
2018-04-13T00:32:50.260Z,80.39
2018-04-13T00:33:50.281Z,80.39
2018-04-13T00:34:50.304Z,80.58
2018-04-13T00:35:50.331Z,80.49
2018-04-13T00:36:50.350Z,80.96
2018-04-13T00:37:50.375Z,80.49
2018-04-13T00:38:50.398Z,80.87
2018-04-13T00:39:50.418Z,80.58
2018-04-13T00:40:50.440Z,80.87
2018-04-13T00:41:50.464Z,81.44
2018-04-13T00:42:50.494Z,81.25
2018-04-13T00:43:50.511Z,81.35
2018-04-13T00:44:50.536Z,80.43
2018-04-13T00:45:50.554Z,80.91
2018-04-13T00:46:50.579Z,80.72
2018-04-13T00:47:50.601Z,80.77
2018-04-13T00:48:50.639Z,80.58
2018-04-13T00:49:50.649Z,81.25
2018-04-13T00:50:50.669Z,81.15
2018-04-13T00:51:50.688Z,81.06
2018-04-13T00:52:50.716Z,81.06
2018-04-13T00:53:50.739Z,81.44
2018-04-13T00:54:50.765Z,81.44
2018-04-13T00:55:50.786Z,81.54
2018-04-13T00:56:50.808Z,81.06
2018-04-13T00:57:50.834Z,80.96
2018-04-13T00:58:50.857Z,81.15
2018-04-13T00:59:50.877Z,81.25
2018-04-13T01:00:50.898Z,81.25
2018-04-13T01:01:50.920Z,80.58
2018-04-13T01:02:50.947Z,80.58
2018-04-13T01:03:50.972Z,80.53
2018-04-13T01:04:50.989Z,80.77
2018-04-13T01:05:51.012Z,80.72
2018-04-13T01:06:51.032Z,80.58
2018-04-13T01:07:51.058Z,80.87
2018-04-13T01:08:51.082Z,80.58
2018-04-13T01:09:51.108Z,81.06
2018-04-13T01:10:51.126Z,81.25
2018-04-13T01:11:51.152Z,80.58
2018-04-13T01:12:51.171Z,80.58
2018-04-13T01:13:51.202Z,80.49
2018-04-13T01:14:51.217Z,80.39
2018-04-13T01:15:51.242Z,81.01
2018-04-13T01:16:51.266Z,80.58
2018-04-13T01:17:51.286Z,80.72
2018-04-13T01:18:51.306Z,80.58
2018-04-13T01:19:51.336Z,80.72
2018-04-13T01:20:51.362Z,80.24
2018-04-13T01:21:51.384Z,79.86
2018-04-13T01:22:51.401Z,80.15
2018-04-13T01:23:51.430Z,80.05
2018-04-13T01:24:51.449Z,79.96
2018-04-13T01:25:51.477Z,79.86
2018-04-13T01:26:51.500Z,79.96
2018-04-13T01:27:51.519Z,80.05
2018-04-13T01:28:51.551Z,79.96
2018-04-13T01:29:51.565Z,80.33
2018-04-13T01:30:51.590Z,80.05
2018-04-13T01:31:51.622Z,80.62
2018-04-13T01:32:51.633Z,81.20
2018-04-13T01:33:51.659Z,81.01
2018-04-13T01:34:51.680Z,82.53
2018-04-13T01:35:51.701Z,82.34
2018-04-13T01:36:51.727Z,82.63
2018-04-13T01:37:51.746Z,82.82
2018-04-13T01:38:51.777Z,82.82
2018-04-13T01:39:51.799Z,83.48
2018-04-13T01:40:51.816Z,83.29
2018-04-13T01:41:51.840Z,83.48
2018-04-13T01:42:51.869Z,83.48
2018-04-13T01:43:51.886Z,83.67
2018-04-13T01:44:51.913Z,83.67
2018-04-13T01:45:51.936Z,83.48
2018-04-13T01:46:51.997Z,83.11
2018-04-13T01:47:51.984Z,83.20
2018-04-13T01:48:52.005Z,83.67
2018-04-13T01:49:52.025Z,83.67
2018-04-13T01:50:52.054Z,83.58
2018-04-13T01:51:52.074Z,83.77
2018-04-13T01:52:52.099Z,83.58
2018-04-13T01:53:52.123Z,83.39
2018-04-13T01:54:52.144Z,83.29
2018-04-13T01:55:52.168Z,83.01
2018-04-13T01:56:52.189Z,83.11
2018-04-13T01:57:52.209Z,82.63
2018-04-13T01:58:52.234Z,83.67
2018-04-13T01:59:52.259Z,83.58
2018-04-13T02:00:52.289Z,83.58
2018-04-13T02:01:52.309Z,83.29
2018-04-13T02:02:52.328Z,83.87
2018-04-13T02:03:52.359Z,83.77
2018-04-13T02:04:52.373Z,84.25
2018-04-13T02:05:52.403Z,84.44
2018-04-13T02:06:52.425Z,85.25
2018-04-13T02:07:52.449Z,85.77
2018-04-13T02:08:52.466Z,86.35
2018-04-13T02:09:52.491Z,86.44
2018-04-13T02:10:52.514Z,86.25
2018-04-13T02:11:52.534Z,86.63
2018-04-13T02:12:52.559Z,85.93
2018-04-13T02:13:52.584Z,86.25
2018-04-13T02:14:52.603Z,86.35
2018-04-13T02:15:52.629Z,86.44
2018-04-13T02:16:52.658Z,86.59
2018-04-13T02:17:52.675Z,85.54
2018-04-13T02:18:52.703Z,86.11
2018-04-13T02:19:52.718Z,86.21
2018-04-13T02:20:52.748Z,85.93
2018-04-13T02:21:52.765Z,86.40
2018-04-13T02:22:52.794Z,86.02
2018-04-13T02:23:52.813Z,85.54
2018-04-13T02:24:52.839Z,86.02
2018-04-13T02:25:52.858Z,85.35
2018-04-13T02:26:52.883Z,85.73
2018-04-13T02:27:52.907Z,85.93
2018-04-13T02:28:52.928Z,85.83
2018-04-13T02:29:52.949Z,85.93
2018-04-13T02:30:52.973Z,85.73
2018-04-13T02:31:52.993Z,85.73
2018-04-13T02:32:53.015Z,85.93
2018-04-13T02:33:53.037Z,86.02
2018-04-13T02:34:53.065Z,86.69
2018-04-13T02:35:53.087Z,86.40
2018-04-13T02:36:53.102Z,86.78
2018-04-13T02:37:53.131Z,86.40
2018-04-13T02:38:53.152Z,86.69
2018-04-13T02:39:53.173Z,86.98
2018-04-13T02:40:53.198Z,87.26
2018-04-13T02:41:53.219Z,87.07
2018-04-13T02:42:53.242Z,87.83
2018-04-13T02:43:53.267Z,87.74
2018-04-13T02:44:53.283Z,87.26
2018-04-13T02:45:53.313Z,86.49
2018-04-13T02:46:53.345Z,86.40
2018-04-13T02:47:53.358Z,86.02
2018-04-13T02:48:53.376Z,86.02
2018-04-13T02:49:53.401Z,86.21
2018-04-13T02:50:53.424Z,86.40
2018-04-13T02:51:53.455Z,86.30
2018-04-13T02:52:53.465Z,86.40
2018-04-13T02:53:53.496Z,86.30
2018-04-13T02:54:53.510Z,87.07
2018-04-13T02:55:53.536Z,86.30
2018-04-13T02:56:53.555Z,86.69
2018-04-13T02:57:53.580Z,86.02
2018-04-13T02:58:53.601Z,85.73
2018-04-13T02:59:53.625Z,86.02
2018-04-13T03:00:53.648Z,85.73
2018-04-13T03:01:53.669Z,85.73
2018-04-13T03:02:53.699Z,85.73
2018-04-13T03:03:53.716Z,86.59
2018-04-13T03:04:53.743Z,86.30
2018-04-13T03:05:53.763Z,86.21
2018-04-13T03:06:53.783Z,87.07
2018-04-13T03:07:53.807Z,86.40
2018-04-13T03:08:53.833Z,86.02
2018-04-13T03:09:53.854Z,86.69
2018-04-13T03:10:53.879Z,86.02
2018-04-13T03:11:53.907Z,85.73
2018-04-13T03:12:53.925Z,86.11
2018-04-13T03:13:53.945Z,86.49
2018-04-13T03:14:53.969Z,86.69
2018-04-13T03:15:53.989Z,87.07
2018-04-13T03:16:54.013Z,86.98
2018-04-13T03:17:54.034Z,87.54
2018-04-13T03:18:54.057Z,87.26
2018-04-13T03:19:54.084Z,87.07
2018-04-13T03:20:54.099Z,87.26
2018-04-13T03:21:54.128Z,87.54
2018-04-13T03:22:54.148Z,87.74
2018-04-13T03:23:54.169Z,87.07
2018-04-13T03:24:54.202Z,86.49
2018-04-13T03:25:54.220Z,87.26
2018-04-13T03:26:54.241Z,86.88
2018-04-13T03:27:54.268Z,87.26
2018-04-13T03:28:54.285Z,87.07
2018-04-13T03:29:54.311Z,87.54
2018-04-13T03:30:54.331Z,87.16
2018-04-13T03:31:54.352Z,87.16
2018-04-13T03:32:54.377Z,86.98
2018-04-13T03:33:54.398Z,87.26
2018-04-13T03:34:54.426Z,87.74
2018-04-13T03:35:54.443Z,87.16
2018-04-13T03:36:54.473Z,87.93
2018-04-13T03:37:54.490Z,87.74
2018-04-13T03:38:54.513Z,86.69
2018-04-13T03:39:54.536Z,87.07
2018-04-13T03:40:54.560Z,87.54
2018-04-13T03:41:54.581Z,87.83
2018-04-13T03:42:54.608Z,87.26
2018-04-13T03:43:54.626Z,87.26
2018-04-13T03:44:54.647Z,87.64
2018-04-13T03:45:54.675Z,87.74
2018-04-13T03:46:54.694Z,88.12
2018-04-13T03:47:54.717Z,88.21
2018-04-13T03:48:54.737Z,88.21
2018-04-13T03:49:54.765Z,87.83
2018-04-13T03:50:54.793Z,88.21
2018-04-13T03:51:54.810Z,87.64
2018-04-13T03:52:54.827Z,87.35
2018-04-13T03:53:54.860Z,87.35
2018-04-13T03:54:54.887Z,87.64
2018-04-13T03:55:54.901Z,87.35
2018-04-13T03:56:54.952Z,87.74
2018-04-13T03:57:54.949Z,87.54
2018-04-13T03:58:54.966Z,87.50
2018-04-13T03:59:54.995Z,87.69
2018-04-13T04:00:55.026Z,87.69
2018-04-13T04:01:55.040Z,87.88
2018-04-13T04:02:55.061Z,87.88
2018-04-13T04:03:55.080Z,87.69
2018-04-13T04:04:55.110Z,87.88
2018-04-13T04:05:55.125Z,88.07
2018-04-13T04:06:55.149Z,88.36
2018-04-13T04:07:55.172Z,88.26
2018-04-13T04:08:55.198Z,88.45
2018-04-13T04:09:55.215Z,88.26
2018-04-13T04:10:55.280Z,88.74
2018-04-13T04:11:55.261Z,88.26
2018-04-13T04:12:55.284Z,88.45
2018-04-13T04:13:55.308Z,88.36
2018-04-13T04:14:55.325Z,87.79
2018-04-13T04:15:55.345Z,87.69
2018-04-13T04:16:55.373Z,87.88
2018-04-13T04:17:55.395Z,88.17
2018-04-13T04:18:55.419Z,87.60
2018-04-13T04:19:55.440Z,88.07
2018-04-13T04:20:55.460Z,87.64
2018-04-13T04:21:55.484Z,87.16
2018-04-13T04:22:55.507Z,87.54
2018-04-13T04:23:55.529Z,87.07
2018-04-13T04:24:55.550Z,86.45
2018-04-13T04:25:55.575Z,86.59
2018-04-13T04:26:55.604Z,87.40
2018-04-13T04:27:55.617Z,86.83
2018-04-13T04:28:55.640Z,87.02
2018-04-13T04:29:55.659Z,86.36
2018-04-13T04:30:55.683Z,86.36
2018-04-13T04:31:55.712Z,87.31
2018-04-13T04:32:55.728Z,87.50
2018-04-13T04:33:55.757Z,87.02
2018-04-13T04:34:55.777Z,87.31
2018-04-13T04:35:55.803Z,87.21
2018-04-13T04:36:55.822Z,86.65
2018-04-13T04:37:55.842Z,87.12
2018-04-13T04:38:55.864Z,86.83
2018-04-13T04:39:55.883Z,86.45
2018-04-13T04:40:55.907Z,86.36
2018-04-13T04:41:55.928Z,86.26
2018-04-13T04:42:55.954Z,86.78
2018-04-13T04:43:55.979Z,86.88
2018-04-13T04:44:56.003Z,87.07
2018-04-13T04:45:56.026Z,86.69
2018-04-13T04:46:56.043Z,86.30
2018-04-13T04:47:56.067Z,86.78
2018-04-13T04:48:56.087Z,86.40
2018-04-13T04:49:56.114Z,86.40
2018-04-13T04:50:56.131Z,86.69
2018-04-13T04:51:56.154Z,86.98
2018-04-13T04:52:56.183Z,86.40
2018-04-13T04:53:56.206Z,86.21
2018-04-13T04:54:56.227Z,86.59
2018-04-13T04:55:56.244Z,86.59
2018-04-13T04:56:56.269Z,86.40
2018-04-13T04:57:56.296Z,86.49
2018-04-13T04:58:56.317Z,86.78
2018-04-13T04:59:56.342Z,86.21
2018-04-13T05:00:56.362Z,86.30
2018-04-13T05:01:56.389Z,85.93
2018-04-13T05:02:56.403Z,86.02
2018-04-13T05:03:56.424Z,86.02
2018-04-13T05:04:56.448Z,85.93
2018-04-13T05:05:56.476Z,85.25
2018-04-13T05:06:56.502Z,85.25
2018-04-13T05:07:56.517Z,85.35
2018-04-13T05:08:56.546Z,84.88
2018-04-13T05:09:56.562Z,84.88
2018-04-13T05:10:56.584Z,85.16
2018-04-13T05:11:56.608Z,85.54
2018-04-13T05:12:56.637Z,85.83
2018-04-13T05:13:56.654Z,86.02
2018-04-13T05:14:56.679Z,85.35
2018-04-13T05:15:56.702Z,85.35
2018-04-13T05:16:56.729Z,85.35
2018-04-13T05:17:56.748Z,85.54
2018-04-13T05:18:56.772Z,85.93
2018-04-13T05:19:56.787Z,85.93
2018-04-13T05:20:56.816Z,85.16
2018-04-13T05:21:56.837Z,85.16
2018-04-13T05:22:56.858Z,85.35
2018-04-13T05:23:56.887Z,85.54
2018-04-13T05:24:56.906Z,85.16
2018-04-13T05:25:56.927Z,85.16
2018-04-13T05:26:56.952Z,85.93
2018-04-13T05:27:56.972Z,85.25
2018-04-13T05:28:56.997Z,85.25
2018-04-13T05:29:57.021Z,84.78
2018-04-13T05:30:57.048Z,84.63
2018-04-13T05:31:57.062Z,84.72
2018-04-13T05:32:57.099Z,84.53
2018-04-13T05:33:57.117Z,84.82
2018-04-13T05:34:57.140Z,84.82
2018-04-13T05:35:57.158Z,85.01
2018-04-13T05:36:57.179Z,83.96
2018-04-13T05:37:57.207Z,83.58
2018-04-13T05:38:57.227Z,84.06
2018-04-13T05:39:57.251Z,83.48
2018-04-13T05:40:57.272Z,83.77
2018-04-13T05:41:57.296Z,84.63
2018-04-13T05:42:57.317Z,84.06
2018-04-13T05:43:57.343Z,84.34
2018-04-13T05:44:57.361Z,83.87
2018-04-13T05:45:57.388Z,83.67
2018-04-13T05:46:57.413Z,83.67
2018-04-13T05:47:57.432Z,83.87
2018-04-13T05:48:57.465Z,84.25
2018-04-13T05:49:57.481Z,83.87
2018-04-13T05:50:57.506Z,84.25
2018-04-13T05:51:57.526Z,83.87
2018-04-13T05:52:57.551Z,84.63
2018-04-13T05:53:57.575Z,85.21
2018-04-13T05:54:57.597Z,84.72
2018-04-13T05:55:57.622Z,84.92
2018-04-13T05:56:57.641Z,85.01
2018-04-13T05:57:57.665Z,84.92
2018-04-13T05:58:57.685Z,85.21
2018-04-13T05:59:57.712Z,85.39
2018-04-13T06:00:57.740Z,84.72
2018-04-13T06:01:57.759Z,84.63
2018-04-13T06:02:57.784Z,84.06
2018-04-13T06:03:57.801Z,84.25
2018-04-13T06:04:57.828Z,84.34
2018-04-13T06:05:57.848Z,84.63
2018-04-13T06:06:57.879Z,84.25
2018-04-13T06:07:57.898Z,83.87
2018-04-13T06:08:57.920Z,83.01
2018-04-13T06:09:57.941Z,82.91
2018-04-13T06:10:57.967Z,82.91
2018-04-13T06:11:57.986Z,83.05
2018-04-13T06:12:58.010Z,83.05
2018-04-13T06:13:58.031Z,83.34
2018-04-13T06:14:58.067Z,82.86
2018-04-13T06:15:58.081Z,82.95
2018-04-13T06:16:58.108Z,82.57
2018-04-13T06:17:58.127Z,82.09
2018-04-13T06:18:58.153Z,82.29
2018-04-13T06:19:58.178Z,82.00
2018-04-13T06:20:58.198Z,82.67
2018-04-13T06:21:58.220Z,82.48
2018-04-13T06:22:58.248Z,82.48
2018-04-13T06:23:58.264Z,82.67
2018-04-13T06:24:58.290Z,82.86
2018-04-13T06:25:58.313Z,82.95
2018-04-13T06:26:58.340Z,83.34
2018-04-13T06:27:58.359Z,83.05
2018-04-13T06:28:58.385Z,83.43
2018-04-13T06:29:58.412Z,83.14
2018-04-13T06:30:58.431Z,83.24
2018-04-13T06:31:58.461Z,83.34
2018-04-13T06:32:58.482Z,83.14
2018-04-13T06:33:58.512Z,83.05
2018-04-13T06:34:58.528Z,83.34
2018-04-13T06:35:58.557Z,83.24
2018-04-13T06:36:58.575Z,83.34
2018-04-13T06:37:58.601Z,83.81
2018-04-13T06:38:58.620Z,83.87
2018-04-13T06:39:58.649Z,84.39
2018-04-13T06:40:58.674Z,83.87
2018-04-13T06:41:58.691Z,84.44
2018-04-13T06:42:58.713Z,84.10
2018-04-13T06:43:58.741Z,83.81
2018-04-13T06:44:58.763Z,83.81
2018-04-13T06:45:58.787Z,83.81
2018-04-13T06:46:58.813Z,84.10
2018-04-13T06:47:58.834Z,84.00
2018-04-13T06:48:58.856Z,83.72
2018-04-13T06:49:58.884Z,83.72
2018-04-13T06:50:58.903Z,83.24
2018-04-13T06:51:58.929Z,83.62
2018-04-13T06:52:58.948Z,83.81
2018-04-13T06:53:58.977Z,83.14
2018-04-13T06:54:58.998Z,83.14
2018-04-13T06:55:59.021Z,83.43
2018-04-13T06:56:59.042Z,83.14
2018-04-13T06:57:59.068Z,82.86
2018-04-13T06:58:59.091Z,83.24
2018-04-13T06:59:59.113Z,83.14
2018-04-13T07:00:59.142Z,83.14
2018-04-13T07:01:59.159Z,83.05
2018-04-13T07:02:59.196Z,83.14
2018-04-13T07:03:59.207Z,83.43
2018-04-13T07:04:59.233Z,82.61
2018-04-13T07:05:59.257Z,82.71
2018-04-13T07:06:59.277Z,83.09
2018-04-13T07:07:59.318Z,82.90
2018-04-13T07:08:59.327Z,83.09
2018-04-13T07:09:59.358Z,83.18
2018-04-13T07:10:59.375Z,83.18
2018-04-13T07:11:59.396Z,82.71
2018-04-13T07:12:59.425Z,83.18
2018-04-13T07:13:59.452Z,83.00
2018-04-13T07:14:59.471Z,82.71
2018-04-13T07:15:59.508Z,82.81
2018-04-13T07:16:59.517Z,82.32
2018-04-13T07:17:59.541Z,82.42
2018-04-13T07:18:59.562Z,82.14
2018-04-13T07:19:59.587Z,82.18
2018-04-13T07:20:59.613Z,81.76
2018-04-13T07:21:59.641Z,81.60
2018-04-13T07:22:59.666Z,81.89
2018-04-13T07:23:59.684Z,81.79
2018-04-13T07:24:59.751Z,81.70
2018-04-13T07:25:59.732Z,81.13
2018-04-13T07:26:59.760Z,81.41
2018-04-13T07:27:59.777Z,81.32
2018-04-13T07:28:59.800Z,81.13
2018-04-13T07:29:59.826Z,81.22
2018-04-13T07:30:59.851Z,80.74
2018-04-13T07:31:59.876Z,80.74
2018-04-13T07:32:59.900Z,80.46
2018-04-13T07:33:59.923Z,80.59
2018-04-13T07:35:00.520Z,80.55
2018-04-13T07:35:59.970Z,80.59
2018-04-13T07:37:00.468Z,81.07
2018-04-13T07:38:00.018Z,80.69
2018-04-13T07:39:00.057Z,80.11
2018-04-13T07:40:00.067Z,80.40
2018-04-13T07:41:00.106Z,80.11
2018-04-13T07:42:00.119Z,80.11
2018-04-13T07:43:00.143Z,80.21
2018-04-13T07:44:00.167Z,80.11
2018-04-13T07:45:00.233Z,79.44
2018-04-13T07:46:00.329Z,80.30
2018-04-13T07:47:00.247Z,80.11
2018-04-13T07:48:00.269Z,80.11
2018-04-13T07:49:00.300Z,80.11
2018-04-13T07:50:00.317Z,80.21
2018-04-13T07:51:00.336Z,79.54
2018-04-13T07:52:00.367Z,80.30
2018-04-13T07:53:00.387Z,80.02
2018-04-13T07:54:00.414Z,80.25
2018-04-13T07:55:00.446Z,80.21
2018-04-13T07:56:00.456Z,79.49
2018-04-13T07:57:00.494Z,80.25
2018-04-13T07:58:00.506Z,79.58
2018-04-13T07:59:01.115Z,79.58
2018-04-13T08:00:00.601Z,79.58
2018-04-13T08:01:00.586Z,79.29
2018-04-13T08:02:00.620Z,79.49
2018-04-13T08:03:00.661Z,79.29
2018-04-13T08:04:00.655Z,79.10
2018-04-13T08:05:00.795Z,79.20
2018-04-13T08:06:00.706Z,78.91
2018-04-13T08:07:00.735Z,79.10
2018-04-13T08:08:00.762Z,78.66
2018-04-13T08:09:00.789Z,79.05
2018-04-13T08:10:00.806Z,78.38
2018-04-13T08:11:00.834Z,78.76
2018-04-13T08:12:00.856Z,78.19
2018-04-13T08:13:00.886Z,78.28
2018-04-13T08:14:00.910Z,78.28
2018-04-13T08:15:00.930Z,77.90
2018-04-13T08:16:00.958Z,77.70
2018-04-13T08:17:00.979Z,77.90
2018-04-13T08:18:01.029Z,77.13
2018-04-13T08:19:01.032Z,76.75
2018-04-13T08:20:01.054Z,77.33
2018-04-13T08:21:01.092Z,76.79
2018-04-13T08:22:01.113Z,76.69
2018-04-13T08:23:01.139Z,76.50
2018-04-13T08:24:01.163Z,75.93
2018-04-13T08:25:01.184Z,75.73
2018-04-13T08:26:01.212Z,75.93
2018-04-13T08:27:01.239Z,75.39
2018-04-13T08:28:01.260Z,75.10
2018-04-13T08:29:01.290Z,74.72
2018-04-13T08:30:01.319Z,74.82
2018-04-13T08:31:01.371Z,73.95
2018-04-13T08:32:01.368Z,74.43
2018-04-13T08:33:01.399Z,74.15
2018-04-13T08:34:01.510Z,73.86
2018-04-13T08:35:01.439Z,73.90
2018-04-13T08:36:01.464Z,73.22
2018-04-13T08:37:01.494Z,73.41
2018-04-13T08:38:01.521Z,72.74
2018-04-13T08:39:01.549Z,72.27
2018-04-13T08:40:01.568Z,72.55
2018-04-13T08:41:01.594Z,72.27
2018-04-13T08:42:01.623Z,72.11
2018-04-13T08:43:01.649Z,72.01
2018-04-13T08:44:01.674Z,72.20
2018-04-13T08:45:01.707Z,72.01
2018-04-13T08:46:01.731Z,72.30
2018-04-13T08:47:01.760Z,72.59
2018-04-13T08:48:01.795Z,72.59
2018-04-13T08:49:01.903Z,71.53
2018-04-13T08:50:01.837Z,71.53
2018-04-13T08:51:01.883Z,71.25
2018-04-13T08:52:01.892Z,71.44
2018-04-13T08:53:02.004Z,71.05
2018-04-13T08:54:01.945Z,71.25
2018-04-13T08:55:01.975Z,71.44
2018-04-13T08:56:01.996Z,70.86
2018-04-13T08:57:02.021Z,71.63
2018-04-13T08:58:02.105Z,70.96
2018-04-13T08:59:02.073Z,71.34
2018-04-13T09:00:02.099Z,71.25
2018-04-13T09:01:02.168Z,70.13
2018-04-13T09:02:02.155Z,70.51
2018-04-13T09:03:02.186Z,70.23
2018-04-13T09:04:02.218Z,70.23
2018-04-13T09:05:02.240Z,70.61
2018-04-13T09:06:02.264Z,70.23
2018-04-13T09:07:02.294Z,69.56
2018-04-13T09:08:02.321Z,69.46
2018-04-13T09:09:02.363Z,69.40
2018-04-13T09:10:02.368Z,69.01
2018-04-13T09:11:02.403Z,68.91
2018-04-13T09:12:02.426Z,68.15
2018-04-13T09:13:02.460Z,68.63
2018-04-13T09:14:02.481Z,67.99
2018-04-13T09:15:02.508Z,67.99
2018-04-13T09:16:02.533Z,67.90
2018-04-13T09:17:02.564Z,68.28
2018-04-13T09:18:02.600Z,67.80
2018-04-13T09:19:02.618Z,67.22
2018-04-13T09:20:02.646Z,67.61
2018-04-13T09:21:02.673Z,67.35
2018-04-13T09:22:02.705Z,67.35
2018-04-13T09:23:02.728Z,67.93
2018-04-13T09:24:02.757Z,67.83
2018-04-13T09:25:02.783Z,68.31
2018-04-13T09:26:02.812Z,68.31
2018-04-13T09:27:02.838Z,68.02
2018-04-13T09:28:02.888Z,67.83
2018-04-13T09:29:02.893Z,67.45
2018-04-13T09:30:02.922Z,67.35
2018-04-13T09:31:02.949Z,66.58
2018-04-13T09:32:02.972Z,66.58
2018-04-13T09:33:03.001Z,66.97
2018-04-13T09:34:03.031Z,66.58
2018-04-13T09:35:03.065Z,66.58
2018-04-13T09:36:03.092Z,66.97
2018-04-13T09:37:03.113Z,66.68
2018-04-13T09:38:03.143Z,66.39
2018-04-13T09:39:03.173Z,66.77
2018-04-13T09:40:03.196Z,67.25
2018-04-13T09:41:03.226Z,67.54
2018-04-13T09:42:03.255Z,67.64
2018-04-13T09:43:03.285Z,67.54
2018-04-13T09:44:03.310Z,67.54
2018-04-13T09:45:03.341Z,67.00
2018-04-13T09:46:03.372Z,66.91
2018-04-13T09:47:03.397Z,67.07
2018-04-13T09:48:03.425Z,67.54
2018-04-13T09:49:03.448Z,67.64
2018-04-13T09:50:03.491Z,67.83
2018-04-13T09:51:03.507Z,68.12
2018-04-13T09:52:03.531Z,68.41
2018-04-13T09:53:03.560Z,68.79
2018-04-13T09:54:03.589Z,68.60
2018-04-13T09:55:03.622Z,68.60
2018-04-13T09:56:03.645Z,68.79
2018-04-13T09:57:03.675Z,69.08
2018-04-13T09:58:03.704Z,68.79
2018-04-13T09:59:03.731Z,68.60
2018-04-13T10:00:03.757Z,68.60
2018-04-13T10:01:03.791Z,69.27
2018-04-13T10:02:03.812Z,68.70
2018-04-13T10:03:03.843Z,69.18
2018-04-13T10:04:03.875Z,69.27
2018-04-13T10:05:03.897Z,69.08
2018-04-13T10:06:03.927Z,69.18
2018-04-13T10:07:03.955Z,68.89
2018-04-13T10:08:03.988Z,69.18
2018-04-13T10:09:04.013Z,69.37
2018-04-13T10:10:04.045Z,69.66
2018-04-13T10:11:04.070Z,69.37
2018-04-13T10:12:04.093Z,69.37
2018-04-13T10:13:04.124Z,69.75
2018-04-13T10:14:04.148Z,69.27
2018-04-13T10:15:04.183Z,69.46
2018-04-13T10:16:04.205Z,69.66
2018-04-13T10:17:04.235Z,70.04
2018-04-13T10:18:04.260Z,69.56
2018-04-13T10:19:04.289Z,70.23
2018-04-13T10:20:04.319Z,70.62
2018-04-13T10:21:04.354Z,70.52
2018-04-13T10:22:04.378Z,70.23
2018-04-13T10:23:04.407Z,70.58
2018-04-13T10:24:04.433Z,70.97
2018-04-13T10:25:04.458Z,71.19
2018-04-13T10:26:04.483Z,71.93
2018-04-13T10:27:04.513Z,71.55
2018-04-13T10:28:04.539Z,71.93
2018-04-13T10:29:04.573Z,72.12
2018-04-13T10:30:04.599Z,72.79
2018-04-13T10:31:04.623Z,72.69
2018-04-13T10:32:04.655Z,72.41
2018-04-13T10:33:04.677Z,72.50
2018-04-13T10:34:04.710Z,72.69
2018-04-13T10:35:04.732Z,72.99
2018-04-13T10:36:04.763Z,73.66
2018-04-13T10:37:04.790Z,73.94
2018-04-13T10:38:04.823Z,74.23
2018-04-13T10:39:04.847Z,73.94
2018-04-13T10:40:04.874Z,74.13
2018-04-13T10:41:04.904Z,74.43
2018-04-13T10:42:04.932Z,74.90
2018-04-13T10:43:04.960Z,75.87
2018-04-13T10:44:04.985Z,76.73
2018-04-13T10:45:05.012Z,76.40
2018-04-13T10:46:05.037Z,77.59
2018-04-13T10:47:05.073Z,77.94
2018-04-13T10:48:05.093Z,77.84
2018-04-13T10:49:05.117Z,78.80
2018-04-13T10:50:05.152Z,78.61
2018-04-13T10:51:05.177Z,79.19
2018-04-13T10:52:05.202Z,80.24
2018-04-13T10:53:05.228Z,81.10
2018-04-13T10:54:05.259Z,81.59
2018-04-13T10:55:05.282Z,83.03
2018-04-13T10:56:05.317Z,83.31
2018-04-13T10:57:05.369Z,83.47
2018-04-13T10:58:05.370Z,85.38
2018-04-13T10:59:05.395Z,86.34
2018-04-13T11:00:05.416Z,87.40
2018-04-13T11:01:05.450Z,88.26
2018-04-13T11:02:05.471Z,88.98
2018-04-13T11:03:05.501Z,89.56
2018-04-13T11:04:05.525Z,90.52
2018-04-13T11:05:05.551Z,91.28
2018-04-13T11:06:05.576Z,92.82
2018-04-13T11:07:05.607Z,93.21
2018-04-13T11:08:05.631Z,93.88
2018-04-13T11:09:05.658Z,94.84
2018-04-13T11:10:05.688Z,95.79
2018-04-13T11:11:05.718Z,95.84
2018-04-13T11:12:05.738Z,96.42
2018-04-13T11:13:05.769Z,96.61
2018-04-13T11:14:05.790Z,97.28
2018-04-13T11:15:05.822Z,97.66
2018-04-13T11:16:05.853Z,97.28
2018-04-13T11:17:05.873Z,98.91
2018-04-13T11:18:05.896Z,98.72
2018-04-13T11:19:05.924Z,99.10
2018-04-13T11:20:05.947Z,99.99
2018-04-13T11:21:05.975Z,99.99
2018-04-13T11:22:06.004Z,99.99
2018-04-13T11:23:06.026Z,99.58
2018-04-13T11:24:06.051Z,99.99
2018-04-13T11:25:06.079Z,99.99
2018-04-13T11:26:06.108Z,99.99
2018-04-13T11:27:06.129Z,99.99
2018-04-13T11:28:06.155Z,99.99
2018-04-13T11:29:06.181Z,99.99
2018-04-13T11:30:06.208Z,99.99
2018-04-13T11:31:06.237Z,99.99
2018-04-13T11:32:06.259Z,99.99
2018-04-13T11:33:06.295Z,99.99
2018-04-13T11:34:06.312Z,99.99
2018-04-13T11:35:06.340Z,99.99
2018-04-13T11:36:06.363Z,99.99
2018-04-13T11:37:06.441Z,99.99
2018-04-13T11:38:06.419Z,99.99
2018-04-13T11:39:06.443Z,99.99
2018-04-13T11:40:06.471Z,99.99
2018-04-13T11:41:06.504Z,99.99
2018-04-13T11:42:06.528Z,99.99
2018-04-13T11:43:06.553Z,99.99
2018-04-13T11:44:06.575Z,99.99
2018-04-13T11:45:06.602Z,99.99
2018-04-13T11:46:06.626Z,99.99
2018-04-13T11:47:06.658Z,99.99
2018-04-13T11:48:06.681Z,99.99
2018-04-13T11:49:06.717Z,99.99
2018-04-13T11:50:06.742Z,99.99
2018-04-13T11:51:06.765Z,99.87
2018-04-13T11:52:06.781Z,99.58
2018-04-13T11:53:06.806Z,99.99
2018-04-13T11:54:06.836Z,99.68
2018-04-13T11:55:06.862Z,99.99
2018-04-13T11:56:06.886Z,98.00
2018-04-13T11:57:06.917Z,98.05
2018-04-13T11:58:06.942Z,97.56
2018-04-13T11:59:06.971Z,97.09
2018-04-13T12:00:07.000Z,97.76
2018-04-13T12:01:07.026Z,96.89
2018-04-13T12:02:07.046Z,96.18
2018-04-13T12:03:07.079Z,97.33
2018-04-13T12:04:07.104Z,97.61
2018-04-13T12:05:07.130Z,97.28
2018-04-13T12:06:07.151Z,97.95
2018-04-13T12:07:07.181Z,97.56
2018-04-13T12:08:07.211Z,97.76
2018-04-13T12:09:07.231Z,97.95
2018-04-13T12:10:07.267Z,97.76
2018-04-13T12:11:07.293Z,97.76
2018-04-13T12:12:07.318Z,97.61
2018-04-13T12:13:07.341Z,97.71
2018-04-13T12:14:07.368Z,97.61
2018-04-13T12:15:07.393Z,98.38
2018-04-13T12:16:07.428Z,98.77
2018-04-13T12:17:07.447Z,98.57
2018-04-13T12:18:07.473Z,99.44
2018-04-13T12:19:07.502Z,98.86
2018-04-13T12:20:07.526Z,98.81
2018-04-13T12:21:07.553Z,99.19
2018-04-13T12:22:07.582Z,98.24
2018-04-13T12:23:07.608Z,97.76
2018-04-13T12:24:07.636Z,98.81
2018-04-13T12:25:07.666Z,98.43
2018-04-13T12:26:07.694Z,98.33
2018-04-13T12:27:07.712Z,98.91
2018-04-13T12:28:07.742Z,98.33
2018-04-13T12:29:07.779Z,98.72
2018-04-13T12:30:07.787Z,99.01
2018-04-13T12:31:07.815Z,98.91
2018-04-13T12:32:07.841Z,99.39
2018-04-13T12:33:07.878Z,99.99
2018-04-13T12:34:07.902Z,99.99
2018-04-13T12:35:07.933Z,99.99
2018-04-13T12:36:07.946Z,99.99
2018-04-13T12:37:07.975Z,99.99
2018-04-13T12:38:07.997Z,99.99
2018-04-13T12:39:08.021Z,99.58
2018-04-13T12:40:08.045Z,99.48
2018-04-13T12:41:08.085Z,99.01
2018-04-13T12:42:08.104Z,98.33
2018-04-13T12:43:08.125Z,98.96
2018-04-13T12:44:08.155Z,98.05
2018-04-13T12:45:08.175Z,98.81
2018-04-13T12:46:08.207Z,98.43
2018-04-13T12:47:08.234Z,97.47
2018-04-13T12:48:08.263Z,97.56
2018-04-13T12:49:08.283Z,97.66
2018-04-13T12:50:08.315Z,97.38
2018-04-13T12:51:08.345Z,96.99
2018-04-13T12:52:08.360Z,97.38
2018-04-13T12:53:08.391Z,97.76